Nullo Mountains, Australia
Current Conditions -  °F | °C
As of 10:00 PM on Friday 28 Nov 2014 (Local Time) from YMDG Reporting Station
Clear Clear  
Wind Chill: 68°   Ceiling: Unl
Heat Index: 68°   Visibility: NA
Dew Point: 54°   Wind: 5mph
Humidity: 60%   Direction: 70°ENE
Pressure: 30.09"   Gusts: NA
Location:  32.72°S, 150.23°E
Report Text: YMDG 281100Z AUTO 07004KT 010V090 //// // NCD 20/12 Q1019
Loading
Personal Weather Stations






























Interactive Weather Map New forecast layout! Learn more

10-Day Weather Forecast

Advertisements
Track Severe Weather on mobile